Time;durP1;ratioP1;P1;durP2;ratioP2;P2;SDS_P1;SDS_P2;PMS_P1;PMS_P2;Temp;Humidity;BMP_temperature;BMP_pressure;BME280_temperature;BME280_humidity;BME280_pressure;Samples;Min_cycle;Max_cycle;Signal;HPM_P1;HPM_P2
2023/08/27 00:01:06;;;;;;;11.90;9.07;;;;;;;-141.97;51.30;47371.09;5034595;28;20654;-78
2023/08/27 00:03:32;;;;;;;11.37;8.57;;;;;;;-141.97;51.58;47359.56;5034491;28;20194;-78
2023/08/27 00:05:57;;;;;;;12.33;8.93;;;;;;;-141.97;52.28;47313.44;5034224;28;20568;-79
2023/08/27 00:08:22;;;;;;;12.97;9.30;;;;;;;-141.97;52.36;47376.84;5034201;28;20190;-79
2023/08/27 00:10:48;;;;;;;11.33;9.10;;;;;;;-141.97;52.78;47359.56;5034281;28;20166;-79
2023/08/27 00:13:13;;;;;;;12.17;9.07;;;;;;;-141.97;52.90;47380.69;5034253;28;20172;-79
2023/08/27 00:15:45;;;;;;;13.07;9.17;;;;;;;-141.97;52.87;47373.00;5034559;28;20619;-79
2023/08/27 00:18:11;;;;;;;11.53;9.10;;;;;;;-141.97;52.97;47376.84;5033945;28;20553;-78
2023/08/27 00:20:37;;;;;;;12.80;9.23;;;;;;;-141.97;52.86;47330.72;5034246;28;20167;-78
2023/08/27 00:23:03;;;;;;;11.30;9.17;;;;;;;-141.97;52.95;47359.56;5034059;28;20178;-78
2023/08/27 00:25:29;;;;;;;14.23;9.17;;;;;;;-141.97;53.41;47307.66;5036369;28;20154;-79
2023/08/27 00:27:54;;;;;;;11.47;8.80;;;;;;;-141.97;53.43;47355.72;5037245;28;20299;-78
2023/08/27 00:30:20;;;;;;;11.03;8.90;;;;;;;-141.97;53.52;47334.56;5032849;28;20585;-79
2023/08/27 00:32:45;;;;;;;11.07;9.17;;;;;;;-141.97;53.73;47361.47;5034008;28;20656;-78
2023/08/27 00:35:11;;;;;;;10.37;8.10;;;;;;;-141.97;54.34;47386.47;5035342;28;20162;-79
2023/08/27 00:37:37;;;;;;;14.50;9.00;;;;;;;-141.97;54.19;47365.31;5035686;28;20150;-79
2023/08/27 00:40:03;;;;;;;11.20;8.60;;;;;;;-141.97;54.16;47373.00;5034634;28;20174;-78
2023/08/27 00:42:29;;;;;;;11.10;8.73;;;;;;;-141.97;54.59;47376.84;5035323;28;20225;-79
2023/08/27 00:44:54;;;;;;;11.57;8.70;;;;;;;-141.97;54.66;47349.94;5033878;28;20154;-80
2023/08/27 00:47:19;;;;;;;11.23;9.13;;;;;;;-141.97;54.86;47351.88;5033427;28;20158;-79
2023/08/27 00:49:45;;;;;;;11.10;8.50;;;;;;;-141.97;54.90;47355.72;5032286;28;20166;-79
2023/08/27 00:52:12;;;;;;;12.87;9.37;;;;;;;-141.97;54.81;47374.94;5033547;28;20158;-79
2023/08/27 00:54:39;;;;;;;9.80;8.47;;;;;;;-141.97;54.81;47376.84;5033496;28;20158;-79
2023/08/27 00:57:06;;;;;;;11.63;8.87;;;;;;;-141.97;54.92;47384.53;5033422;28;20324;-79
2023/08/27 00:59:32;;;;;;;12.13;8.90;;;;;;;-141.97;55.35;47392.22;5033390;28;20201;-79
2023/08/27 01:01:58;;;;;;;13.43;9.30;;;;;;;-141.97;55.29;47359.56;5033360;28;20159;-79
2023/08/27 01:04:23;;;;;;;13.30;9.10;;;;;;;-141.97;55.35;47369.16;5033283;28;20166;-79
2023/08/27 01:06:50;;;;;;;10.10;8.57;;;;;;;-141.97;55.57;47340.34;5033280;28;20162;-79
2023/08/27 01:09:30;;;;;;;13.50;9.00;;;;;;;-141.97;55.76;47388.38;5033065;28;20185;-79
2023/08/27 01:12:13;;;;;;;10.23;8.70;;;;;;;-141.97;55.82;47369.16;5032963;28;20168;-79
2023/08/27 01:14:42;;;;;;;11.53;9.23;;;;;;;-141.97;56.09;47374.94;5032983;28;20227;-79
2023/08/27 01:17:10;;;;;;;11.97;9.00;;;;;;;-141.97;56.30;47378.78;5032871;28;20162;-79
2023/08/27 01:19:37;;;;;;;13.50;9.03;;;;;;;-141.97;56.63;47398.00;5035663;28;20190;-80
2023/08/27 01:22:03;;;;;;;16.17;9.23;;;;;;;-141.97;56.26;47342.25;5032103;28;20196;-79
2023/08/27 01:24:28;;;;;;;12.30;8.97;;;;;;;-141.97;56.43;47380.69;5032877;28;20181;-78
2023/08/27 01:27:05;;;;;;;11.00;9.30;;;;;;;-141.97;56.67;47349.94;5032938;28;20257;-79
2023/08/27 01:30:14;;;;;;;13.40;9.33;;;;;;;-141.97;57.08;47396.06;5032567;28;20185;-79
2023/08/27 01:32:49;;;;;;;15.60;9.40;;;;;;;-141.97;57.03;47357.63;5032651;28;20161;-79
2023/08/27 01:35:15;;;;;;;10.70;9.07;;;;;;;-141.97;56.83;47361.47;5032722;28;20243;-79
2023/08/27 01:37:41;;;;;;;14.30;9.53;;;;;;;-141.97;57.02;47392.22;5032618;28;20162;-79
2023/08/27 01:40:08;;;;;;;12.73;9.60;;;;;;;-141.97;57.26;47388.38;5032561;28;20312;-79
2023/08/27 01:42:35;;;;;;;11.80;9.30;;;;;;;-141.97;57.05;47388.38;5031171;28;20618;-79
2023/08/27 01:45:05;;;;;;;16.10;9.90;;;;;;;-141.97;57.54;47503.69;5032395;28;20185;-79
2023/08/27 01:47:31;;;;;;;12.63;8.97;;;;;;;-141.97;57.72;47376.84;5034658;28;20165;-78
2023/08/27 01:49:56;;;;;;;12.30;9.43;;;;;;;-141.97;57.66;47371.09;5032359;28;20166;-79
2023/08/27 01:52:22;;;;;;;14.20;9.33;;;;;;;-141.97;57.29;47403.75;5031568;28;20162;-79
2023/08/27 01:54:47;;;;;;;13.43;9.70;;;;;;;-141.97;56.68;47313.44;5032475;28;20163;-79
2023/08/27 01:57:13;;;;;;;14.23;9.80;;;;;;;-141.97;56.29;47348.03;5032357;28;20185;-79
2023/08/27 01:59:38;;;;;;;11.07;9.07;;;;;;;-141.97;56.26;47346.09;5032183;28;20327;-79
2023/08/27 02:02:04;;;;;;;13.30;9.57;;;;;;;-141.97;56.24;47376.84;5032181;28;20196;-79
2023/08/27 02:04:29;;;;;;;12.40;9.60;;;;;;;-141.97;56.15;47382.63;5032105;28;20166;-79
2023/08/27 02:06:54;;;;;;;11.83;9.23;;;;;;;-141.97;56.01;47461.41;5031921;28;20180;-79
2023/08/27 02:09:20;;;;;;;12.07;9.50;;;;;;;-141.97;56.45;47371.09;5031976;28;20196;-79
2023/08/27 02:11:45;;;;;;;13.90;9.33;;;;;;;-141.97;56.33;47384.53;5031848;28;20162;-79
2023/08/27 02:14:10;;;;;;;12.97;9.60;;;;;;;-141.97;57.09;47330.72;5017829;28;20175;-79
2023/08/27 02:16:37;;;;;;;13.27;9.70;;;;;;;-141.97;57.26;47371.09;5012003;28;20622;-79
2023/08/27 02:19:03;;;;;;;14.03;9.50;;;;;;;-141.97;57.07;47373.00;5012039;28;20576;-79
2023/08/27 02:21:29;;;;;;;15.50;10.17;;;;;;;-141.97;57.11;47290.38;5012001;28;20173;-79
2023/08/27 02:23:54;;;;;;;13.27;10.10;;;;;;;-141.97;57.43;47363.41;5010523;28;20221;-78
2023/08/27 02:26:20;;;;;;;14.87;9.80;;;;;;;-141.97;58.30;47384.53;5012149;28;20535;-78
2023/08/27 02:28:46;;;;;;;13.67;9.70;;;;;;;-141.97;58.23;47394.16;5011680;28;20684;-78
2023/08/27 02:31:12;;;;;;;14.07;9.70;;;;;;;-141.97;57.76;47365.31;5011828;28;20241;-78
2023/08/27 02:33:38;;;;;;;13.40;9.50;;;;;;;-141.97;58.10;47373.00;5011858;28;20167;-78
2023/08/27 02:36:04;;;;;;;14.20;9.90;;;;;;;-141.97;57.69;47396.06;5011493;28;20174;-78
2023/08/27 02:38:29;;;;;;;15.90;10.20;;;;;;;-141.97;57.98;47409.53;5011648;28;20155;-78
2023/08/27 02:40:55;;;;;;;14.83;9.67;;;;;;;-141.97;58.46;47384.53;5011915;28;20513;-78
2023/08/27 02:43:20;;;;;;;15.37;9.83;;;;;;;-141.97;58.55;47396.06;5012814;28;20167;-78
2023/08/27 02:45:47;;;;;;;12.80;9.90;;;;;;;-141.97;58.36;47403.75;5013376;28;20214;-78
2023/08/27 02:48:12;;;;;;;17.47;9.93;;;;;;;-141.97;58.60;47382.63;5012601;28;20242;-79
2023/08/27 02:50:38;;;;;;;16.87;10.30;;;;;;;-141.97;58.93;47367.25;5012809;28;20166;-79
2023/08/27 02:53:03;;;;;;;16.20;10.33;;;;;;;-141.97;58.47;47411.44;5012130;28;20178;-79
2023/08/27 02:55:31;;;;;;;15.93;10.50;;;;;;;-141.97;59.28;47317.28;5011356;28;20167;-79
2023/08/27 02:57:57;;;;;;;15.07;10.27;;;;;;;-141.97;59.42;47424.91;5011700;28;20154;-79
2023/08/27 03:00:23;;;;;;;15.37;10.63;;;;;;;-141.97;59.33;47353.78;5011663;28;20297;-78
2023/08/27 03:02:48;;;;;;;14.37;10.67;;;;;;;-141.97;59.45;47382.63;5011223;28;20249;-78
2023/08/27 03:05:14;;;;;;;15.70;10.57;;;;;;;-141.97;59.87;47403.75;5011280;28;20171;-79
2023/08/27 03:07:39;;;;;;;13.73;10.60;;;;;;;-141.97;59.49;47422.97;5011460;28;20190;-79
2023/08/27 03:10:05;;;;;;;17.27;10.57;;;;;;;-141.97;59.11;47396.06;5018623;28;20189;-76
2023/08/27 03:12:30;;;;;;;17.67;10.83;;;;;;;-141.97;59.33;47399.91;5029343;28;20704;-79
2023/08/27 03:14:56;;;;;;;14.80;10.70;;;;;;;-141.97;59.26;47376.84;5011531;28;20167;-79
2023/08/27 03:17:22;;;;;;;17.07;10.70;;;;;;;-141.97;59.34;47374.94;5011244;28;20174;-78
2023/08/27 03:19:47;;;;;;;14.67;10.30;;;;;;;-141.97;58.99;47447.97;5011330;28;20372;-79
2023/08/27 03:22:12;;;;;;;15.53;10.73;;;;;;;-141.97;59.27;47398.00;5026255;28;20224;-78
2023/08/27 03:24:38;;;;;;;14.53;10.80;;;;;;;-141.97;60.24;47353.78;5011172;28;20181;-78
2023/08/27 03:27:04;;;;;;;16.03;10.63;;;;;;;-141.97;59.82;47378.78;5011110;28;20523;-78
2023/08/27 03:29:29;;;;;;;14.40;10.40;;;;;;;-141.97;59.97;47384.53;5011740;28;20190;-78
2023/08/27 03:31:55;;;;;;;13.47;10.33;;;;;;;-141.97;59.90;47392.22;5011163;28;20559;-78
2023/08/27 03:34:20;;;;;;;14.43;11.53;;;;;;;-141.97;59.65;47401.84;5011224;28;20297;-79
2023/08/27 03:36:46;;;;;;;16.50;11.30;;;;;;;-141.97;59.66;47424.91;5011055;28;20187;-78
2023/08/27 03:39:11;;;;;;;15.60;11.50;;;;;;;-141.97;59.57;47311.50;5011067;28;20217;-78
2023/08/27 03:41:37;;;;;;;15.37;10.77;;;;;;;-141.97;59.22;47405.69;5010773;28;20232;-79
2023/08/27 03:44:03;;;;;;;17.37;11.87;;;;;;;-141.97;59.22;47422.97;5010900;28;20188;-79
2023/08/27 03:46:28;;;;;;;15.07;11.43;;;;;;;-141.97;58.97;47401.84;5011185;28;20616;-79
2023/08/27 03:48:53;;;;;;;15.00;11.40;;;;;;;-141.97;59.12;47426.81;5010993;28;20236;-78
2023/08/27 03:51:19;;;;;;;16.90;11.23;;;;;;;-141.97;58.96;47407.59;5010827;28;20526;-79
2023/08/27 03:53:44;;;;;;;16.33;10.93;;;;;;;-141.97;58.90;47380.69;5026107;28;20177;-78
2023/08/27 03:56:09;;;;;;;17.83;11.87;;;;;;;-141.97;58.98;47424.91;5011057;28;20197;-78
2023/08/27 03:58:35;;;;;;;17.30;11.63;;;;;;;-141.97;58.98;47409.53;5010906;28;20190;-79
2023/08/27 04:01:00;;;;;;;14.43;11.37;;;;;;;-141.97;59.05;47409.53;5011120;28;20203;-79
2023/08/27 04:03:26;;;;;;;15.70;11.47;;;;;;;-141.97;59.11;47419.13;5011045;28;20167;-79
2023/08/27 04:05:51;;;;;;;15.30;11.73;;;;;;;-141.97;59.11;47392.22;5010835;28;20167;-78
2023/08/27 04:08:17;;;;;;;17.93;11.80;;;;;;;-141.97;59.44;47426.81;5010752;28;20187;-79
2023/08/27 04:10:50;;;;;;;14.97;11.70;;;;;;;-141.97;59.52;47419.13;5010903;28;20559;-79
2023/08/27 04:13:17;;;;;;;18.27;12.03;;;;;;;-141.97;61.29;47422.97;5010848;28;20171;-79
2023/08/27 04:15:43;;;;;;;20.27;14.97;;;;;;;-141.97;61.48;47446.03;5011902;28;20163;-80
2023/08/27 04:18:08;;;;;;;22.07;15.30;;;;;;;-141.97;62.81;47440.28;5014361;28;20155;-79
2023/08/27 04:20:34;;;;;;;19.10;14.60;;;;;;;-141.97;63.08;47407.59;5014597;28;20214;-79
2023/08/27 04:22:59;;;;;;;19.43;13.40;;;;;;;-141.97;62.32;47440.28;5014347;28;20173;-79
2023/08/27 04:25:25;;;;;;;16.17;12.60;;;;;;;-141.97;61.80;47438.34;5014366;28;20698;-79
2023/08/27 04:27:50;;;;;;;18.30;13.07;;;;;;;-141.97;61.93;47430.66;5014301;28;20191;-79
2023/08/27 04:30:16;;;;;;;19.97;14.20;;;;;;;-141.97;61.60;47434.50;5014233;28;20157;-79
2023/08/27 04:32:43;;;;;;;14.90;12.50;;;;;;;-141.97;61.61;47497.94;5014215;28;20159;-79
2023/08/27 04:35:08;;;;;;;19.93;13.87;;;;;;;-141.97;61.19;47419.13;5014254;28;20165;-79
2023/08/27 04:37:34;;;;;;;18.57;14.47;;;;;;;-141.97;62.06;47442.19;5029431;28;20166;-79
2023/08/27 04:39:59;;;;;;;19.63;15.03;;;;;;;-141.97;63.68;47413.38;5012704;28;20598;-79
2023/08/27 04:42:24;;;;;;;18.33;15.13;;;;;;;-141.97;63.89;47409.53;5013885;28;20218;-79
2023/08/27 04:44:50;;;;;;;22.17;15.43;;;;;;;-141.97;65.06;47449.88;5013856;28;20582;-79
2023/08/27 04:47:16;;;;;;;20.50;15.13;;;;;;;-141.97;65.44;47469.09;5013664;28;20167;-78
2023/08/27 04:49:42;;;;;;;20.40;16.40;;;;;;;-141.97;65.24;47438.34;5013860;28;20633;-79
2023/08/27 04:52:07;;;;;;;21.87;16.67;;;;;;;-141.97;64.51;47430.66;5016408;28;20178;-79
2023/08/27 04:54:33;;;;;;;21.63;15.17;;;;;;;-141.97;64.22;47430.66;5022555;28;20249;-79
2023/08/27 04:56:59;;;;;;;17.70;14.47;;;;;;;-141.97;64.69;47411.44;5018267;28;20167;-79
2023/08/27 04:59:24;;;;;;;21.60;14.73;;;;;;;-141.97;63.98;47461.41;5015638;28;20167;-79
2023/08/27 05:01:51;;;;;;;20.63;14.47;;;;;;;-141.97;62.87;47446.03;5017828;28;20177;-78
2023/08/27 05:04:17;;;;;;;19.40;14.67;;;;;;;-141.97;62.48;47440.28;5018756;28;20255;-78
2023/08/27 05:06:42;;;;;;;19.87;14.00;;;;;;;-141.97;63.09;47430.66;5013251;28;20186;-80
2023/08/27 05:09:08;;;;;;;18.30;13.80;;;;;;;-141.97;64.46;47422.97;5013448;28;20191;-79
2023/08/27 05:11:33;;;;;;;18.63;14.27;;;;;;;-141.97;63.96;47438.34;5028473;28;20182;-79
2023/08/27 05:13:59;;;;;;;19.37;14.13;;;;;;;-141.97;63.02;47384.53;5013315;28;20171;-79
2023/08/27 05:16:24;;;;;;;20.67;13.57;;;;;;;-141.97;62.66;47474.88;5013401;28;20242;-79
2023/08/27 05:18:49;;;;;;;19.13;14.10;;;;;;;-141.97;61.68;47459.50;5013222;28;20681;-79
2023/08/27 05:21:15;;;;;;;19.70;13.77;;;;;;;-141.97;61.02;47432.59;5013377;28;20353;-79
2023/08/27 05:23:40;;;;;;;18.53;13.57;;;;;;;-141.97;61.61;47442.19;5013791;28;20183;-78
2023/08/27 05:26:05;;;;;;;18.17;13.90;;;;;;;-141.97;61.11;47396.06;5013067;28;20167;-79
2023/08/27 05:28:31;;;;;;;19.60;13.00;;;;;;;-141.97;60.34;47436.44;5011804;28;20201;-79
2023/08/27 05:30:56;;;;;;;18.33;12.87;;;;;;;-141.97;59.90;47419.13;5013004;28;20167;-79
2023/08/27 05:33:21;;;;;;;18.57;13.73;;;;;;;-141.97;59.48;47426.81;5013067;28;20544;-78
2023/08/27 05:35:47;;;;;;;18.73;13.50;;;;;;;-141.97;58.80;47407.59;5012790;28;20174;-80
2023/08/27 05:38:12;;;;;;;18.23;13.40;;;;;;;-141.97;57.88;47392.22;5013111;28;20186;-80
2023/08/27 05:40:38;;;;;;;20.67;13.73;;;;;;;-141.97;57.60;47415.28;5012761;28;20194;-79
2023/08/27 05:43:03;;;;;;;18.00;13.63;;;;;;;-141.97;57.20;47434.50;5012849;28;20190;-79
2023/08/27 05:45:28;;;;;;;16.73;12.40;;;;;;;-141.97;57.23;47434.50;5012713;28;20167;-78
2023/08/27 05:47:54;;;;;;;18.60;13.00;;;;;;;-141.97;57.38;47371.09;5012716;28;20256;-79
2023/08/27 05:50:19;;;;;;;20.03;13.13;;;;;;;-141.97;57.05;47411.44;5027962;28;20613;-78
2023/08/27 05:52:46;;;;;;;21.40;13.83;;;;;;;-141.97;56.53;47411.44;5020151;28;20198;-75
2023/08/27 05:55:11;;;;;;;16.67;12.87;;;;;;;-141.97;56.11;47422.97;5024585;28;20171;-80
2023/08/27 05:57:36;;;;;;;17.47;13.33;;;;;;;-141.97;55.72;47326.88;5012920;28;20170;-81
2023/08/27 06:00:02;;;;;;;21.07;13.23;;;;;;;-141.97;55.29;47411.44;5012683;28;20594;-79
2023/08/27 06:02:28;;;;;;;18.97;12.57;;;;;;;-141.97;55.15;47403.75;5012468;28;20260;-81
2023/08/27 06:04:53;;;;;;;16.50;12.93;;;;;;;-141.97;55.16;47409.53;5011999;28;20175;-79
2023/08/27 06:07:18;;;;;;;16.90;12.60;;;;;;;-141.97;55.57;47422.97;5012084;28;20175;-79
2023/08/27 06:09:44;;;;;;;17.63;12.50;;;;;;;-141.97;56.21;47426.81;5011988;28;20202;-79
2023/08/27 06:12:09;;;;;;;15.23;12.07;;;;;;;-141.97;54.85;47413.38;5011983;28;20620;-79
2023/08/27 06:14:35;;;;;;;17.07;12.67;;;;;;;-141.97;55.12;47401.84;5012010;28;20615;-80
2023/08/27 06:17:00;;;;;;;22.47;12.30;;;;;;;-141.97;54.59;47392.22;5011856;28;20257;-79
2023/08/27 06:19:25;;;;;;;16.67;12.20;;;;;;;-141.97;54.45;47380.69;5011648;28;20166;-78
2023/08/27 06:21:51;;;;;;;17.27;12.07;;;;;;;-141.97;53.70;47428.75;5011732;28;20730;-79
2023/08/27 06:24:16;;;;;;;17.43;11.43;;;;;;;-141.97;52.86;47380.69;5011838;28;20224;-79
2023/08/27 06:26:42;;;;;;;16.43;10.73;;;;;;;-141.97;52.82;47403.75;5011449;28;20163;-78
2023/08/27 06:29:07;;;;;;;17.03;12.10;;;;;;;-141.97;52.38;47421.06;5011555;28;20545;-80
2023/08/27 06:31:32;;;;;;;15.17;11.53;;;;;;;-141.97;51.86;47369.16;5011696;28;20169;-79
2023/08/27 06:33:58;;;;;;;29.27;11.73;;;;;;;-141.97;50.76;47357.63;5011549;28;20246;-79
2023/08/27 06:36:23;;;;;;;14.88;11.07;;;;;;;-141.97;49.91;47378.78;5011334;28;20298;-80
2023/08/27 06:38:49;;;;;;;16.70;11.68;;;;;;;-141.97;49.81;47294.22;5026584;28;20183;-79
2023/08/27 06:41:14;;;;;;;17.13;11.70;;;;;;;-141.97;49.42;47388.38;5011217;28;20226;-79
2023/08/27 06:43:39;;;;;;;16.67;11.20;;;;;;;-141.97;49.59;47384.53;5011157;28;20180;-80
2023/08/27 06:46:05;;;;;;;16.23;12.40;;;;;;;-141.97;49.87;47384.53;5011674;28;20665;-79
2023/08/27 06:48:30;;;;;;;15.63;11.57;;;;;;;-141.97;49.16;47382.63;5026240;28;20288;-80
2023/08/27 06:50:55;;;;;;;14.32;12.73;;;;;;;-141.97;49.22;47361.47;5011290;28;20589;-80
2023/08/27 06:53:21;;;;;;;17.83;11.70;;;;;;;-141.97;50.70;47365.31;5011462;28;20153;-79
2023/08/27 06:55:46;;;;;;;19.83;11.48;;;;;;;-141.97;51.04;47342.25;5011141;28;20169;-79
2023/08/27 06:58:11;;;;;;;14.55;11.65;;;;;;;-141.97;50.35;47344.19;5010962;28;20191;-78
2023/08/27 07:00:39;;;;;;;14.98;11.40;;;;;;;-141.97;49.51;47388.38;5011363;28;20252;-79
2023/08/27 07:03:06;;;;;;;15.20;10.98;;;;;;;-141.97;50.03;47399.91;5029973;28;20173;-80
2023/08/27 07:05:33;;;;;;;14.35;11.85;;;;;;;-141.97;49.28;47290.38;5015215;28;20158;-80
2023/08/27 07:07:59;;;;;;;14.52;11.70;;;;;;;-141.97;48.53;47380.69;5013340;28;20190;-79
2023/08/27 07:10:25;;;;;;;17.33;12.25;;;;;;;-141.97;48.67;47342.25;5014244;28;20258;-78
2023/08/27 07:12:50;;;;;;;15.15;11.75;;;;;;;-141.97;47.80;47376.84;5013039;28;20165;-79
2023/08/27 07:15:16;;;;;;;17.58;11.85;;;;;;;-141.97;46.80;47361.47;5011091;28;20166;-79
2023/08/27 07:17:41;;;;;;;16.13;11.30;;;;;;;-141.97;47.34;47311.50;5010733;28;20629;-79
2023/08/27 07:20:07;;;;;;;15.02;11.32;;;;;;;-141.97;47.69;47330.72;5011069;28;20459;-80
2023/08/27 07:22:33;;;;;;;16.25;11.60;;;;;;;-141.97;47.24;47336.50;5010584;28;20156;-80
2023/08/27 07:24:59;;;;;;;15.50;10.93;;;;;;;-141.97;46.03;47275.00;5010858;28;20166;-80
2023/08/27 07:27:25;;;;;;;13.13;10.70;;;;;;;-141.97;45.63;47311.50;5010878;28;20215;-79
2023/08/27 07:29:50;;;;;;;18.05;11.52;;;;;;;-141.97;45.38;47342.25;5010639;28;20591;-79
2023/08/27 07:32:16;;;;;;;15.45;11.50;;;;;;;-141.97;44.45;47584.44;5010755;28;20176;-79
2023/08/27 07:34:41;;;;;;;16.15;11.32;;;;;;;-141.97;44.85;47305.75;5010805;28;20221;-79
2023/08/27 07:37:07;;;;;;;14.05;11.43;;;;;;;-141.97;43.91;47324.97;5010440;28;20619;-79
2023/08/27 07:39:32;;;;;;;12.95;11.00;;;;;;;-141.97;43.47;47328.81;5010552;28;20170;-79
2023/08/27 07:41:59;;;;;;;14.05;11.55;;;;;;;-141.97;44.49;47324.97;5010200;28;20265;-79
2023/08/27 07:44:25;;;;;;;17.63;11.60;;;;;;;-141.97;44.71;47326.88;5010642;28;20526;-79
2023/08/27 07:46:50;;;;;;;13.95;10.90;;;;;;;-141.97;44.90;47446.03;5010592;28;20223;-79
2023/08/27 07:49:16;;;;;;;13.88;11.65;;;;;;;-141.97;45.37;47357.63;5010242;28;20198;-79
2023/08/27 07:51:41;;;;;;;15.10;11.93;;;;;;;-141.97;45.38;47361.47;5013188;28;20176;-79
2023/08/27 07:54:07;;;;;;;13.95;11.23;;;;;;;-141.97;43.38;47348.03;5014898;28;20169;-80
2023/08/27 07:56:32;;;;;;;12.65;10.80;;;;;;;-141.97;43.16;47344.19;5014709;28;20596;-79
2023/08/27 07:58:57;;;;;;;15.45;10.60;;;;;;;-141.97;42.81;47324.97;5014536;28;20177;-80
2023/08/27 08:01:23;;;;;;;11.77;10.55;;;;;;;-141.97;42.41;47326.88;5014347;28;20170;-80
2023/08/27 08:03:48;;;;;;;14.55;10.48;;;;;;;-141.97;41.02;47273.06;5014362;28;20265;-79
2023/08/27 08:06:13;;;;;;;14.85;10.20;;;;;;;-141.97;41.90;47342.25;5013929;28;20185;-80
2023/08/27 08:08:39;;;;;;;13.27;10.15;;;;;;;-141.97;41.85;47319.19;5014120;28;20192;-80
2023/08/27 08:11:05;;;;;;;13.95;10.02;;;;;;;-141.97;41.90;47315.34;5014270;28;20183;-79
2023/08/27 08:13:32;;;;;;;13.95;10.18;;;;;;;-141.97;41.62;47323.03;5014150;28;20243;-79
2023/08/27 08:15:57;;;;;;;15.85;11.05;;;;;;;-141.97;41.12;47276.91;5014310;28;20173;-79
2023/08/27 08:18:23;;;;;;;15.50;10.90;;;;;;;-141.97;40.06;47284.59;5013888;28;20205;-79
2023/08/27 08:20:52;;;;;;;13.52;10.90;;;;;;;-141.97;40.78;47340.34;5013940;28;20170;-79
2023/08/27 08:23:18;;;;;;;13.73;10.82;;;;;;;-141.97;40.23;47296.13;5013772;28;20177;-79
2023/08/27 08:25:44;;;;;;;13.60;10.63;;;;;;;-141.97;38.97;47294.22;5013971;28;20200;-81
2023/08/27 08:28:09;;;;;;;12.95;9.93;;;;;;;-141.97;38.46;47265.38;5013734;28;20200;-79
2023/08/27 08:30:35;;;;;;;12.57;10.18;;;;;;;-141.97;38.03;47282.69;5013601;28;20168;-80
2023/08/27 08:33:00;;;;;;;14.85;10.45;;;;;;;-141.97;37.30;47284.59;5014402;28;20174;-81
2023/08/27 08:35:26;;;;;;;13.75;10.85;;;;;;;-141.97;37.29;47240.41;5021212;28;20618;-75
2023/08/27 08:37:51;;;;;;;15.50;10.80;;;;;;;-141.97;38.15;47317.28;5026978;28;20241;-78
2023/08/27 08:40:18;;;;;;;13.43;11.10;;;;;;;-141.97;38.25;47232.72;5014004;28;20224;-79
2023/08/27 08:42:55;;;;;;;14.52;10.40;;;;;;;-141.97;37.86;47255.78;5013253;28;20289;-79
2023/08/27 08:45:43;;;;;;;13.20;10.30;;;;;;;-141.97;36.67;47248.09;5013731;28;20572;-81
2023/08/27 08:48:11;;;;;;;19.42;10.75;;;;;;;-141.97;36.47;47219.25;5013551;28;20759;-79
2023/08/27 08:50:40;;;;;;;15.48;10.32;;;;;;;-141.97;36.38;47261.53;5013791;28;20249;-80
2023/08/27 08:53:14;;;;;;;13.63;10.50;;;;;;;-141.97;36.39;47261.53;5013407;28;20181;-81
2023/08/27 08:55:46;;;;;;;13.18;9.50;;;;;;;-141.97;35.94;47284.59;5013529;28;20623;-79
2023/08/27 08:58:13;;;;;;;11.50;9.68;;;;;;;-141.97;35.71;47236.56;5013487;28;20165;-80
2023/08/27 09:00:39;;;;;;;12.45;9.88;;;;;;;-141.97;35.14;47269.22;5013653;28;20197;-79
2023/08/27 09:03:05;;;;;;;14.02;9.80;;;;;;;-141.97;35.34;47238.47;5013406;28;20554;-80
2023/08/27 09:05:34;;;;;;;10.85;9.45;;;;;;;-141.97;35.48;47250.00;5013453;28;20601;-80
2023/08/27 09:08:00;;;;;;;14.32;9.93;;;;;;;-141.97;35.22;47253.84;5012938;28;20193;-80
2023/08/27 09:10:27;;;;;;;18.70;10.35;;;;;;;-141.97;34.44;47250.00;5013636;28;20247;-80
2023/08/27 09:12:57;;;;;;;12.85;9.55;;;;;;;-141.97;34.24;47209.66;5019203;28;20163;-80
2023/08/27 09:15:23;;;;;;;12.75;9.10;;;;;;;-141.97;33.88;47234.63;5018621;28;20173;-79
2023/08/27 09:17:49;;;;;;;13.43;9.05;;;;;;;-141.97;34.04;47253.84;5018451;28;20171;-80
2023/08/27 09:20:15;;;;;;;14.57;9.70;;;;;;;-141.97;34.13;47200.03;5017822;28;20254;-81
2023/08/27 09:22:41;;;;;;;13.18;8.93;;;;;;;-141.97;34.02;47238.47;5013274;28;20163;-79
2023/08/27 09:25:09;;;;;;;10.15;9.00;;;;;;;-141.97;34.23;47167.38;5013372;28;20162;-79
2023/08/27 09:27:34;;;;;;;11.90;9.02;;;;;;;-141.97;34.40;47267.31;5028453;28;20171;-79
2023/08/27 09:30:01;;;;;;;10.05;8.98;;;;;;;-141.97;34.71;47430.66;5027794;28;20312;-79
2023/08/27 09:32:27;;;;;;;12.30;8.95;;;;;;;-141.97;34.41;47261.53;5013049;28;20171;-81
2023/08/27 09:35:04;;;;;;;10.95;8.90;;;;;;;-141.97;34.08;47223.09;5012956;28;20163;-80
2023/08/27 09:37:38;;;;;;;10.23;8.50;;;;;;;-141.97;34.05;47246.16;5012719;28;20239;-78
2023/08/27 09:40:08;;;;;;;11.30;8.25;;;;;;;-141.97;33.45;47226.94;5012707;28;20175;-80
2023/08/27 09:42:33;;;;;;;11.35;8.20;;;;;;;-141.97;33.20;47219.25;5012033;28;20246;-79
2023/08/27 09:44:59;;;;;;;9.65;8.20;;;;;;;-141.97;32.19;47207.72;5012383;28;20171;-79
2023/08/27 09:47:32;;;;;;;11.15;8.32;;;;;;;-141.97;32.42;47230.78;5012413;28;20580;-80
2023/08/27 09:49:59;;;;;;;16.50;11.32;;;;;;;-141.97;32.37;47217.34;5012381;28;20194;-78
2023/08/27 09:52:26;;;;;;;9.32;7.15;;;;;;;-141.97;31.27;47207.72;5012064;28;20261;-79
2023/08/27 09:54:52;;;;;;;7.97;6.95;;;;;;;-141.97;30.89;47265.38;5012328;28;20219;-80
2023/08/27 09:57:21;;;;;;;10.45;7.43;;;;;;;-141.97;31.32;47205.81;5012256;28;20240;-79
2023/08/27 09:59:47;;;;;;;9.07;7.60;;;;;;;-141.97;31.35;47180.81;5012851;28;20159;-79
2023/08/27 10:02:14;;;;;;;9.85;8.10;;;;;;;-141.97;31.43;47198.09;5012164;28;20643;-79
2023/08/27 10:04:56;;;;;;;11.70;9.55;;;;;;;-141.97;31.43;47150.06;5012271;28;20174;-80
2023/08/27 10:07:22;;;;;;;11.30;7.78;;;;;;;-141.97;31.42;47173.13;5011977;28;20224;-80
2023/08/27 10:09:50;;;;;;;10.57;8.50;;;;;;;-141.97;31.35;47175.06;5012040;28;20194;-79
2023/08/27 10:12:17;;;;;;;11.73;7.65;;;;;;;-141.97;31.16;47198.09;5012058;28;20158;-79
2023/08/27 10:14:44;;;;;;;8.70;7.80;;;;;;;-141.97;31.53;47496.00;5011576;28;20163;-80
2023/08/27 10:17:10;;;;;;;10.00;7.93;;;;;;;-141.97;32.19;47203.88;5012343;28;20159;-79
2023/08/27 10:19:36;;;;;;;12.00;8.27;;;;;;;-141.97;31.61;47226.94;5011738;28;20162;-80
2023/08/27 10:22:06;;;;;;;8.55;7.22;;;;;;;-141.97;31.50;47219.25;5011678;28;20155;-80
2023/08/27 10:24:33;;;;;;;9.15;7.45;;;;;;;-141.97;31.33;47234.63;5012132;28;20163;-79
2023/08/27 10:26:59;;;;;;;10.30;7.13;;;;;;;-141.97;30.82;47215.41;5011778;28;20194;-80
2023/08/27 10:29:26;;;;;;;8.25;7.32;;;;;;;-141.97;30.68;47259.63;5011784;28;20195;-80
2023/08/27 10:31:53;;;;;;;11.10;7.57;;;;;;;-141.97;30.60;47203.88;5011513;28;20174;-79
2023/08/27 10:34:18;;;;;;;10.15;7.50;;;;;;;-141.97;31.11;47205.81;5011645;28;20189;-81
2023/08/27 10:36:45;;;;;;;7.90;6.97;;;;;;;-141.97;30.83;47215.41;5011796;28;20166;-80
2023/08/27 10:39:11;;;;;;;8.93;7.25;;;;;;;-141.97;30.46;47184.66;5011828;28;20160;-81
2023/08/27 10:41:37;;;;;;;8.60;7.13;;;;;;;-141.97;30.50;47152.00;5011401;28;20646;-79
2023/08/27 10:44:09;;;;;;;7.68;6.88;;;;;;;-141.97;30.86;47223.09;5015959;28;20249;-81
2023/08/27 10:46:35;;;;;;;8.30;7.00;;;;;;;-141.97;30.51;47182.75;5011674;28;20265;-81
2023/08/27 10:49:01;;;;;;;9.20;6.25;;;;;;;-141.97;30.05;47192.34;5011405;28;20190;-80
2023/08/27 10:51:33;;;;;;;7.63;6.75;;;;;;;-141.97;30.49;47230.78;5009998;28;20607;-79
2023/08/27 10:54:00;;;;;;;9.98;6.57;;;;;;;-141.97;30.67;47115.47;5011135;28;20162;-79
2023/08/27 10:56:47;;;;;;;10.57;6.63;;;;;;;-141.97;30.96;47246.16;5011467;28;20615;-80
2023/08/27 10:59:26;;;;;;;8.15;6.65;;;;;;;-141.97;30.57;47238.47;5011447;28;20163;-80
2023/08/27 11:02:09;;;;;;;11.38;6.78;;;;;;;-141.97;30.65;47196.19;5011215;28;20155;-79